createdAt,value
2019-05-01T00:01:47.712Z,5.40
2019-05-01T00:04:33.738Z,5.30
2019-05-01T00:07:04.940Z,5.05
2019-05-01T00:09:32.666Z,5.30
2019-05-01T00:12:00.257Z,5.08
2019-05-01T00:14:27.768Z,5.05
2019-05-01T00:16:55.617Z,5.30
2019-05-01T00:19:23.207Z,5.28
2019-05-01T00:21:50.814Z,5.50
2019-05-01T00:24:18.989Z,5.20
2019-05-01T00:26:47.256Z,4.97
2019-05-01T00:29:15.139Z,5.00
2019-05-01T00:31:42.771Z,4.72
2019-05-01T00:34:10.437Z,4.70
2019-05-01T00:36:38.390Z,4.70
2019-05-01T00:39:06.081Z,4.75
2019-05-01T00:41:33.583Z,5.03
2019-05-01T00:44:01.068Z,5.03
2019-05-01T00:46:28.689Z,4.92
2019-05-01T00:48:56.728Z,5.47
2019-05-01T00:51:24.270Z,4.78
2019-05-01T00:53:51.934Z,5.70
2019-05-01T00:56:25.747Z,5.50
2019-05-01T00:59:24.616Z,5.60
2019-05-01T01:02:07.165Z,5.28
2019-05-01T01:04:35.258Z,5.12
2019-05-01T01:07:03.126Z,5.30
2019-05-01T01:09:30.781Z,5.80
2019-05-01T01:11:58.285Z,5.67
2019-05-01T01:14:26.024Z,5.17
2019-05-01T01:16:54.580Z,5.25
2019-05-01T01:19:22.506Z,6.03
2019-05-01T01:21:50.502Z,5.03
2019-05-01T01:24:18.114Z,5.58
2019-05-01T01:26:45.596Z,5.92
2019-05-01T01:29:13.634Z,5.90
2019-05-01T01:31:41.103Z,5.55
2019-05-01T01:34:08.976Z,5.33
2019-05-01T01:36:36.538Z,6.30
2019-05-01T01:39:06.390Z,5.55
2019-05-01T01:41:34.578Z,5.45
2019-05-01T01:44:34.052Z,6.55
2019-05-01T01:47:02.069Z,5.67
2019-05-01T01:49:29.738Z,5.92
2019-05-01T01:51:57.383Z,5.75
2019-05-01T01:54:25.040Z,5.62
2019-05-01T01:56:52.854Z,5.45
2019-05-01T01:59:21.145Z,5.40
2019-05-01T02:01:59.681Z,5.80
2019-05-01T02:04:46.927Z,5.75
2019-05-01T02:07:14.397Z,5.70
2019-05-01T02:09:42.234Z,5.75
2019-05-01T02:12:10.614Z,5.70
2019-05-01T02:14:38.579Z,5.92
2019-05-01T02:17:06.283Z,5.37
2019-05-01T02:19:33.973Z,6.00
2019-05-01T02:22:01.557Z,6.55
2019-05-01T02:24:29.405Z,6.62
2019-05-01T02:26:59.003Z,6.28
2019-05-01T02:29:32.720Z,5.60
2019-05-01T02:32:00.695Z,5.85
2019-05-01T02:34:28.723Z,6.50
2019-05-01T02:36:58.608Z,6.22
2019-05-01T02:39:28.669Z,6.10
2019-05-01T02:42:00.023Z,6.10
2019-05-01T02:44:33.568Z,5.75
2019-05-01T02:47:03.627Z,5.97
2019-05-01T02:49:36.619Z,5.83
2019-05-01T02:52:06.709Z,5.62
2019-05-01T02:54:36.279Z,5.60
2019-05-01T02:57:10.674Z,6.55
2019-05-01T02:59:41.214Z,6.35
2019-05-01T03:02:09.348Z,6.67
2019-05-01T03:04:37.312Z,5.78
2019-05-01T03:07:07.115Z,6.20
2019-05-01T03:09:35.739Z,6.40
2019-05-01T03:12:03.897Z,6.55
2019-05-01T03:14:35.456Z,5.92
2019-05-01T03:17:06.519Z,6.20
2019-05-01T03:19:52.255Z,6.85
2019-05-01T03:22:36.351Z,5.53
2019-05-01T03:25:04.427Z,5.95
2019-05-01T03:27:32.187Z,7.85
2019-05-01T03:29:59.828Z,7.03
2019-05-01T03:32:27.786Z,6.97
2019-05-01T03:34:55.597Z,6.95
2019-05-01T03:37:23.627Z,6.87
2019-05-01T03:39:52.134Z,6.67
2019-05-01T03:42:20.114Z,7.25
2019-05-01T03:44:48.244Z,6.50
2019-05-01T03:47:15.877Z,6.60
2019-05-01T03:49:43.582Z,6.08
2019-05-01T03:52:11.362Z,5.50
2019-05-01T03:54:39.363Z,6.00
2019-05-01T03:57:07.394Z,6.40
2019-05-01T03:59:35.597Z,5.90
2019-05-01T04:02:12.326Z,6.92
2019-05-01T04:04:40.112Z,6.80
2019-05-01T04:07:07.999Z,7.40
2019-05-01T04:09:35.731Z,6.65
2019-05-01T04:12:04.667Z,7.25
2019-05-01T04:14:32.632Z,7.35
2019-05-01T04:17:08.784Z,7.60
2019-05-01T04:19:36.328Z,7.28
2019-05-01T04:22:10.341Z,6.83
2019-05-01T04:24:38.507Z,7.22
2019-05-01T04:27:08.068Z,7.67
2019-05-01T04:29:57.477Z,7.10
2019-05-01T04:32:30.145Z,6.87
2019-05-01T04:35:17.660Z,6.83
2019-05-01T04:37:45.583Z,6.20
2019-05-01T04:40:14.149Z,6.80
2019-05-01T04:42:41.934Z,6.47
2019-05-01T04:45:10.174Z,7.70
2019-05-01T04:47:38.335Z,6.85
2019-05-01T04:50:06.153Z,6.85
2019-05-01T04:52:33.810Z,5.80
2019-05-01T04:55:01.972Z,6.97
2019-05-01T04:57:29.604Z,6.67
2019-05-01T04:59:57.759Z,6.90
2019-05-01T05:02:32.223Z,6.75
2019-05-01T05:04:59.824Z,6.92
2019-05-01T05:07:27.428Z,8.23
2019-05-01T05:09:55.425Z,8.03
2019-05-01T05:12:29.626Z,7.17
2019-05-01T05:15:04.391Z,7.80
2019-05-01T05:17:32.155Z,7.97
2019-05-01T05:20:00.119Z,7.00
2019-05-01T05:22:27.904Z,7.65
2019-05-01T05:24:56.724Z,8.10
2019-05-01T05:27:24.666Z,6.70
2019-05-01T05:29:56.140Z,7.75
2019-05-01T05:32:25.564Z,8.45
2019-05-01T05:34:55.823Z,7.60
2019-05-01T05:37:28.877Z,7.78
2019-05-01T05:39:57.801Z,7.90
2019-05-01T05:42:25.883Z,8.20
2019-05-01T05:44:53.996Z,9.88
2019-05-01T05:47:25.262Z,8.70
2019-05-01T05:49:52.471Z,8.43
2019-05-01T05:52:40.693Z,9.48
2019-05-01T05:55:19.413Z,8.20
2019-05-01T05:58:01.988Z,8.43
2019-05-01T06:00:49.051Z,7.67
2019-05-01T06:03:37.266Z,6.75
2019-05-01T06:06:41.976Z,7.08
2019-05-01T06:09:13.848Z,7.83
2019-05-01T06:12:08.934Z,6.67
2019-05-01T06:14:44.219Z,7.42
2019-05-01T06:17:28.561Z,8.20
2019-05-01T06:20:08.491Z,8.38
2019-05-01T06:22:56.606Z,8.28
2019-05-01T06:25:29.102Z,9.70
2019-05-01T06:27:57.822Z,8.50
2019-05-01T06:30:25.500Z,10.10
2019-05-01T06:32:53.709Z,11.25
2019-05-01T06:35:21.678Z,11.15
2019-05-01T06:38:00.829Z,12.18
2019-05-01T06:40:38.196Z,10.80
2019-05-01T06:43:09.393Z,13.80
2019-05-01T06:45:38.934Z,12.43
2019-05-01T06:48:07.610Z,13.53
2019-05-01T06:50:46.401Z,15.23
2019-05-01T06:53:14.145Z,13.65
2019-05-01T06:55:42.407Z,15.15
2019-05-01T06:58:10.447Z,14.58
2019-05-01T07:00:42.975Z,14.63
2019-05-01T07:03:10.438Z,14.13
2019-05-01T07:05:38.928Z,14.55
2019-05-01T07:08:06.735Z,15.63
2019-05-01T07:10:43.763Z,15.72
2019-05-01T07:13:06.431Z,14.70
2019-05-01T07:15:34.432Z,14.10
2019-05-01T07:18:02.498Z,15.72
2019-05-01T07:20:49.455Z,15.35
2019-05-01T07:23:17.330Z,15.90
2019-05-01T07:25:46.882Z,17.05
2019-05-01T07:28:14.982Z,17.73
2019-05-01T07:30:56.160Z,17.70
2019-05-01T07:33:23.753Z,17.75
2019-05-01T07:35:53.928Z,16.02
2019-05-01T07:38:21.678Z,17.17
2019-05-01T07:40:49.835Z,16.73
2019-05-01T07:43:34.651Z,16.87
2019-05-01T07:46:13.709Z,15.90
2019-05-01T07:48:43.412Z,16.60
2019-05-01T07:51:11.928Z,16.80
2019-05-01T07:53:40.198Z,15.98
2019-05-01T07:56:09.102Z,17.15
2019-05-01T07:58:37.667Z,16.82
2019-05-01T08:01:13.051Z,14.95
2019-05-01T08:03:42.756Z,16.30
2019-05-01T08:06:10.365Z,16.37
2019-05-01T08:08:39.953Z,16.45
2019-05-01T08:11:10.340Z,17.30
2019-05-01T08:13:38.014Z,16.02
2019-05-01T08:16:07.293Z,15.83
2019-05-01T08:18:42.175Z,15.88
2019-05-01T08:21:35.213Z,15.78
2019-05-01T08:24:03.549Z,14.87
2019-05-01T08:26:31.461Z,14.75
2019-05-01T08:29:17.871Z,14.65
2019-05-01T08:32:06.697Z,15.35
2019-05-01T08:34:47.982Z,14.85
2019-05-01T08:37:06.537Z,15.72
2019-05-01T08:39:34.199Z,15.98
2019-05-01T08:42:03.111Z,14.23
2019-05-01T08:44:33.826Z,15.08
2019-05-01T08:47:10.549Z,16.70
2019-05-01T08:49:50.962Z,14.50
2019-05-01T08:52:18.528Z,14.20
2019-05-01T08:54:46.063Z,15.25
2019-05-01T08:57:13.812Z,15.48
2019-05-01T08:59:41.894Z,14.53
2019-05-01T09:02:10.043Z,14.03
2019-05-01T09:04:38.553Z,16.93
2019-05-01T09:07:06.467Z,13.85
2019-05-01T09:09:34.683Z,14.00
2019-05-01T09:12:02.336Z,15.58
2019-05-01T09:14:34.894Z,14.45
2019-05-01T09:17:00.011Z,14.15
2019-05-01T09:19:27.573Z,15.70
2019-05-01T09:21:55.079Z,15.72
2019-05-01T09:24:27.467Z,14.75
2019-05-01T09:27:00.876Z,12.98
2019-05-01T09:29:37.411Z,13.55
2019-05-01T09:32:10.216Z,13.78
2019-05-01T09:34:35.093Z,13.62
2019-05-01T09:37:02.859Z,14.40
2019-05-01T09:39:31.568Z,13.30
2019-05-01T09:41:59.315Z,12.65
2019-05-01T09:44:27.315Z,11.55
2019-05-01T09:46:54.864Z,10.28
2019-05-01T09:49:22.685Z,11.95
2019-05-01T09:51:57.043Z,10.50
2019-05-01T09:54:56.178Z,10.75
2019-05-01T09:57:24.060Z,10.23
2019-05-01T09:59:51.609Z,10.90
2019-05-01T10:02:20.019Z,9.23
2019-05-01T10:04:47.533Z,8.45
2019-05-01T10:07:15.138Z,7.58
2019-05-01T10:09:47.211Z,7.28
2019-05-01T10:12:13.172Z,9.85
2019-05-01T10:14:41.202Z,9.20
2019-05-01T10:17:09.026Z,7.85
2019-05-01T10:19:37.283Z,6.90
2019-05-01T10:22:05.246Z,6.28
2019-05-01T10:24:37.779Z,5.90
2019-05-01T10:27:05.271Z,6.42
2019-05-01T10:29:51.348Z,6.20
2019-05-01T10:32:26.907Z,7.42
2019-05-01T10:34:58.979Z,8.20
2019-05-01T10:37:28.352Z,7.80
2019-05-01T10:39:57.381Z,8.23
2019-05-01T10:42:25.638Z,8.60
2019-05-01T10:44:53.152Z,8.68
2019-05-01T10:47:21.148Z,8.88
2019-05-01T10:49:48.952Z,8.20
2019-05-01T10:52:16.774Z,8.28
2019-05-01T10:54:46.545Z,7.55
2019-05-01T10:57:13.888Z,7.55
2019-05-01T10:59:42.311Z,7.25
2019-05-01T11:02:11.598Z,7.28
2019-05-01T11:04:39.374Z,7.58
2019-05-01T11:07:07.253Z,6.75
2019-05-01T11:09:34.934Z,7.08
2019-05-01T11:12:02.483Z,6.70
2019-05-01T11:14:30.367Z,7.08
2019-05-01T11:16:58.030Z,7.05
2019-05-01T11:19:25.859Z,6.95
2019-05-01T11:21:53.722Z,7.55
2019-05-01T11:24:21.597Z,6.75
2019-05-01T11:26:49.480Z,6.72
2019-05-01T11:29:16.969Z,5.65
2019-05-01T11:32:04.552Z,6.47
2019-05-01T11:34:57.706Z,6.22
2019-05-01T11:37:49.782Z,5.58
2019-05-01T11:40:23.266Z,6.65
2019-05-01T11:42:50.995Z,5.35
2019-05-01T11:45:19.377Z,6.87
2019-05-01T11:47:46.920Z,5.53
2019-05-01T11:50:14.890Z,6.15
2019-05-01T11:52:43.603Z,6.12
2019-05-01T11:55:11.530Z,5.92
2019-05-01T11:57:39.124Z,7.05
2019-05-01T12:00:07.425Z,5.78
2019-05-01T12:02:35.302Z,5.60
2019-05-01T12:05:03.194Z,5.60
2019-05-01T12:07:32.736Z,6.10
2019-05-01T12:10:00.557Z,5.60
2019-05-01T12:12:29.813Z,4.92
2019-05-01T12:14:57.377Z,5.33
2019-05-01T12:17:30.268Z,6.17
2019-05-01T12:19:58.538Z,5.62
2019-05-01T12:22:26.016Z,5.17
2019-05-01T12:24:53.974Z,5.83
2019-05-01T12:27:21.906Z,5.70
2019-05-01T12:29:50.024Z,4.70
2019-05-01T12:32:17.989Z,5.45
2019-05-01T12:34:45.999Z,5.33
2019-05-01T12:37:36.391Z,4.70
2019-05-01T12:40:04.714Z,5.08
2019-05-01T12:42:33.176Z,5.28
2019-05-01T12:45:00.945Z,5.33
2019-05-01T12:47:46.916Z,4.95
2019-05-01T12:50:15.163Z,5.33
2019-05-01T12:53:00.930Z,4.90
2019-05-01T12:55:49.127Z,5.20
2019-05-01T12:58:17.421Z,6.20
2019-05-01T13:00:48.283Z,5.50
2019-05-01T13:03:16.109Z,4.62
2019-05-01T13:05:43.924Z,5.05
2019-05-01T13:08:11.476Z,4.80
2019-05-01T13:10:39.052Z,5.15
2019-05-01T13:13:06.760Z,4.95
2019-05-01T13:15:34.369Z,4.33
2019-05-01T13:18:01.873Z,4.50
2019-05-01T13:20:29.943Z,5.10
2019-05-01T13:22:57.526Z,4.25
2019-05-01T13:25:25.495Z,4.25
2019-05-01T13:27:59.610Z,4.90
2019-05-01T13:30:41.217Z,4.70
2019-05-01T13:33:09.235Z,4.30
2019-05-01T13:35:36.972Z,4.10
2019-05-01T13:38:04.521Z,4.12
2019-05-01T13:40:32.091Z,4.75
2019-05-01T13:42:59.843Z,4.97
2019-05-01T13:45:27.338Z,4.03
2019-05-01T13:47:54.932Z,4.15
2019-05-01T13:50:23.285Z,4.45
2019-05-01T13:52:50.928Z,4.17
2019-05-01T13:55:18.523Z,4.05
2019-05-01T13:57:46.079Z,4.30
2019-05-01T14:00:13.626Z,4.28
2019-05-01T14:02:41.552Z,4.42
2019-05-01T14:05:09.277Z,4.10
2019-05-01T14:07:36.723Z,4.72
2019-05-01T14:10:04.545Z,4.55
2019-05-01T14:12:32.049Z,3.67
2019-05-01T14:15:00.373Z,4.10
2019-05-01T14:17:27.979Z,4.10
2019-05-01T14:20:02.087Z,4.05
2019-05-01T14:22:44.337Z,4.30
2019-05-01T14:25:12.260Z,3.55
2019-05-01T14:27:40.641Z,4.10
2019-05-01T14:30:10.285Z,4.25
2019-05-01T14:32:38.130Z,3.80
2019-05-01T14:35:05.941Z,4.53
2019-05-01T14:37:35.290Z,3.85
2019-05-01T14:40:02.918Z,3.83
2019-05-01T14:42:31.182Z,4.50
2019-05-01T14:44:59.158Z,4.00
2019-05-01T14:47:26.961Z,4.50
2019-05-01T14:49:54.476Z,3.55
2019-05-01T14:52:22.117Z,4.28
2019-05-01T14:54:49.976Z,4.00
2019-05-01T14:57:17.797Z,4.00
2019-05-01T14:59:45.851Z,4.17
2019-05-01T15:02:13.696Z,4.17
2019-05-01T15:04:41.420Z,3.70
2019-05-01T15:07:11.222Z,4.12
2019-05-01T15:09:39.050Z,3.72
2019-05-01T15:12:07.733Z,4.35
2019-05-01T15:14:42.878Z,3.52
2019-05-01T15:17:29.520Z,3.87
2019-05-01T15:20:05.950Z,3.85
2019-05-01T15:22:34.093Z,3.12
2019-05-01T15:25:01.678Z,3.58
2019-05-01T15:27:29.760Z,3.50
2019-05-01T15:29:57.933Z,4.53
2019-05-01T15:32:25.772Z,3.50
2019-05-01T15:34:53.982Z,4.08
2019-05-01T15:37:21.842Z,3.77
2019-05-01T15:40:00.034Z,3.42
2019-05-01T15:42:47.142Z,3.98
2019-05-01T15:45:15.007Z,2.95
2019-05-01T15:47:42.811Z,3.80
2019-05-01T15:50:10.659Z,3.95
2019-05-01T15:52:38.473Z,4.05
2019-05-01T15:55:06.581Z,3.45
2019-05-01T15:57:34.355Z,3.47
2019-05-01T16:00:02.120Z,3.62
2019-05-01T16:02:29.832Z,3.67
2019-05-01T16:04:58.048Z,3.83
2019-05-01T16:07:25.658Z,3.65
2019-05-01T16:09:53.454Z,3.60
2019-05-01T16:12:38.828Z,3.85
2019-05-01T16:15:11.730Z,3.52
2019-05-01T16:17:39.589Z,3.83
2019-05-01T16:20:07.455Z,3.90
2019-05-01T16:22:35.017Z,3.50
2019-05-01T16:25:02.856Z,3.40
2019-05-01T16:27:31.135Z,3.35
2019-05-01T16:29:59.421Z,3.50
